sensor_id;sensor_type;location;lat;lon;timestamp;pressure;altitude;pressure_sealevel;temperature;humidity
68807;BME280;55800;54.272;18.558;2023-05-29T00:00:08;101322.34;;;10.47;51.85
68807;BME280;55800;54.272;18.558;2023-05-29T00:02:58;101324.09;;;10.48;49.52
68807;BME280;55800;54.272;18.558;2023-05-29T00:05:29;101326.94;;;10.43;50.90
68807;BME280;55800;54.272;18.558;2023-05-29T00:07:58;101325.94;;;10.46;48.63
68807;BME280;55800;54.272;18.558;2023-05-29T00:10:27;101334.13;;;10.40;50.96
68807;BME280;55800;54.272;18.558;2023-05-29T00:12:59;101332.28;;;10.43;52.95
68807;BME280;55800;54.272;18.558;2023-05-29T00:15:28;101331.59;;;10.35;52.57
68807;BME280;55800;54.272;18.558;2023-05-29T00:17:59;101329.03;;;10.32;52.45
68807;BME280;55800;54.272;18.558;2023-05-29T00:20:29;101330.94;;;10.27;54.33
68807;BME280;55800;54.272;18.558;2023-05-29T00:23:02;101329.81;;;10.36;51.76
68807;BME280;55800;54.272;18.558;2023-05-29T00:25:32;101328.94;;;10.35;55.01
68807;BME280;55800;54.272;18.558;2023-05-29T00:28:01;101332.16;;;10.46;54.07
68807;BME280;55800;54.272;18.558;2023-05-29T00:30:30;101327.19;;;10.34;53.29
68807;BME280;55800;54.272;18.558;2023-05-29T00:33:00;101329.09;;;10.29;52.32
68807;BME280;55800;54.272;18.558;2023-05-29T00:35:29;101335.34;;;10.30;53.39
68807;BME280;55800;54.272;18.558;2023-05-29T00:37:58;101333.75;;;10.53;51.35
68807;BME280;55800;54.272;18.558;2023-05-29T00:40:27;101336.72;;;10.43;51.41
68807;BME280;55800;54.272;18.558;2023-05-29T00:42:56;101335.06;;;10.39;52.47
68807;BME280;55800;54.272;18.558;2023-05-29T00:45:25;101337.03;;;10.61;52.22
68807;BME280;55800;54.272;18.558;2023-05-29T00:47:54;101331.63;;;10.64;52.24
68807;BME280;55800;54.272;18.558;2023-05-29T00:50:25;101331.38;;;10.43;51.17
68807;BME280;55800;54.272;18.558;2023-05-29T00:52:55;101332.63;;;10.31;50.21
68807;BME280;55800;54.272;18.558;2023-05-29T00:55:24;101332.63;;;10.31;51.92
68807;BME280;55800;54.272;18.558;2023-05-29T00:57:53;101328.03;;;10.36;51.35
68807;BME280;55800;54.272;18.558;2023-05-29T01:00:22;101327.88;;;10.41;50.42
68807;BME280;55800;54.272;18.558;2023-05-29T01:02:52;101334.19;;;10.38;52.01
68807;BME280;55800;54.272;18.558;2023-05-29T01:05:22;101326.81;;;10.46;51.93
68807;BME280;55800;54.272;18.558;2023-05-29T01:07:53;101329.41;;;10.49;52.48
68807;BME280;55800;54.272;18.558;2023-05-29T01:10:22;101329.94;;;10.60;53.63
68807;BME280;55800;54.272;18.558;2023-05-29T01:12:53;101326.97;;;10.71;51.78
68807;BME280;55800;54.272;18.558;2023-05-29T01:15:29;101326.16;;;10.95;51.11
68807;BME280;55800;54.272;18.558;2023-05-29T01:18:06;101325.41;;;10.91;50.86
68807;BME280;55800;54.272;18.558;2023-05-29T01:20:37;101326.78;;;10.75;51.98
68807;BME280;55800;54.272;18.558;2023-05-29T01:23:26;101334.81;;;10.75;52.48
68807;BME280;55800;54.272;18.558;2023-05-29T01:25:58;101338.50;;;10.71;52.48
68807;BME280;55800;54.272;18.558;2023-05-29T01:28:32;101333.16;;;10.71;51.73
68807;BME280;55800;54.272;18.558;2023-05-29T01:31:04;101338.31;;;10.77;51.89
68807;BME280;55800;54.272;18.558;2023-05-29T01:33:34;101345.34;;;10.81;52.98
68807;BME280;55800;54.272;18.558;2023-05-29T01:36:07;101331.03;;;10.82;53.28
68807;BME280;55800;54.272;18.558;2023-05-29T01:38:37;101335.47;;;10.83;51.90
68807;BME280;55800;54.272;18.558;2023-05-29T01:41:06;101339.88;;;10.84;52.78
68807;BME280;55800;54.272;18.558;2023-05-29T01:43:36;101336.38;;;10.82;52.22
68807;BME280;55800;54.272;18.558;2023-05-29T01:46:05;101337.97;;;10.88;53.31
68807;BME280;55800;54.272;18.558;2023-05-29T01:48:35;101341.25;;;10.97;53.70
68807;BME280;55800;54.272;18.558;2023-05-29T01:51:05;101344.47;;;11.09;51.84
68807;BME280;55800;54.272;18.558;2023-05-29T01:53:34;101341.72;;;11.10;53.43
68807;BME280;55800;54.272;18.558;2023-05-29T01:56:04;101332.00;;;11.08;52.92
68807;BME280;55800;54.272;18.558;2023-05-29T01:58:34;101339.13;;;11.07;53.44
68807;BME280;55800;54.272;18.558;2023-05-29T02:01:05;101339.13;;;11.07;53.92
68807;BME280;55800;54.272;18.558;2023-05-29T02:03:35;101338.22;;;11.08;53.93
68807;BME280;55800;54.272;18.558;2023-05-29T02:06:04;101340.03;;;11.08;52.83
68807;BME280;55800;54.272;18.558;2023-05-29T02:08:34;101332.88;;;11.08;53.11
68807;BME280;55800;54.272;18.558;2023-05-29T02:11:03;101332.25;;;11.00;54.36
68807;BME280;55800;54.272;18.558;2023-05-29T02:13:32;101326.94;;;10.98;54.62
68807;BME280;55800;54.272;18.558;2023-05-29T02:16:01;101328.75;;;10.98;53.08
68807;BME280;55800;54.272;18.558;2023-05-29T02:18:32;101342.22;;;10.95;56.02
68807;BME280;55800;54.272;18.558;2023-05-29T02:21:02;101344.22;;;10.88;56.41
68807;BME280;55800;54.272;18.558;2023-05-29T02:23:31;101338.16;;;10.83;56.27
68807;BME280;55800;54.272;18.558;2023-05-29T02:26:00;101338.31;;;10.77;55.87
68807;BME280;55800;54.272;18.558;2023-05-29T02:28:29;101347.97;;;10.83;56.44
68807;BME280;55800;54.272;18.558;2023-05-29T02:31:17;101340.47;;;10.66;56.19
68807;BME280;55800;54.272;18.558;2023-05-29T02:33:48;101339.53;;;10.67;57.44
68807;BME280;55800;54.272;18.558;2023-05-29T02:36:17;101343.97;;;10.68;56.77
68807;BME280;55800;54.272;18.558;2023-05-29T02:38:46;101347.34;;;10.73;56.75
68807;BME280;55800;54.272;18.558;2023-05-29T02:41:17;101347.47;;;10.70;58.08
68807;BME280;55800;54.272;18.558;2023-05-29T02:43:46;101343.03;;;10.69;55.94
68807;BME280;55800;54.272;18.558;2023-05-29T02:46:15;101330.63;;;10.67;57.75
68807;BME280;55800;54.272;18.558;2023-05-29T02:48:44;101337.69;;;10.69;55.87
68807;BME280;55800;54.272;18.558;2023-05-29T02:51:15;101334.94;;;10.72;55.45
68807;BME280;55800;54.272;18.558;2023-05-29T02:53:44;101332.31;;;10.71;56.73
68807;BME280;55800;54.272;18.558;2023-05-29T02:56:13;101330.41;;;10.74;56.75
68807;BME280;55800;54.272;18.558;2023-05-29T02:58:43;101336.53;;;10.78;57.26
68807;BME280;55800;54.272;18.558;2023-05-29T03:01:14;101333.84;;;10.78;56.65
68807;BME280;55800;54.272;18.558;2023-05-29T03:03:43;101332.00;;;10.80;57.16
68807;BME280;55800;54.272;18.558;2023-05-29T03:06:12;101337.31;;;10.81;56.13
68807;BME280;55800;54.272;18.558;2023-05-29T03:08:45;101341.16;;;10.73;54.97
68807;BME280;55800;54.272;18.558;2023-05-29T03:11:14;101342.13;;;10.70;57.12
68807;BME280;55800;54.272;18.558;2023-05-29T03:13:43;101341.72;;;10.82;54.91
68807;BME280;55800;54.272;18.558;2023-05-29T03:16:14;101345.22;;;10.84;55.43
68807;BME280;55800;54.272;18.558;2023-05-29T03:18:45;101337.00;;;10.90;56.05
68807;BME280;55800;54.272;18.558;2023-05-29T03:21:17;101327.13;;;10.92;56.66
68807;BME280;55800;54.272;18.558;2023-05-29T03:23:47;101331.72;;;10.89;56.90
68807;BME280;55800;54.272;18.558;2023-05-29T03:26:16;101324.44;;;10.94;58.45
68807;BME280;55800;54.272;18.558;2023-05-29T03:28:47;101325.13;;;10.99;59.10
68807;BME280;55800;54.272;18.558;2023-05-29T03:31:16;101330.25;;;11.07;59.68
68807;BME280;55800;54.272;18.558;2023-05-29T03:33:45;101324.69;;;11.13;60.55
68807;BME280;55800;54.272;18.558;2023-05-29T03:36:22;101323.41;;;11.24;60.63
68807;BME280;55800;54.272;18.558;2023-05-29T03:38:52;101325.91;;;11.30;60.85
68807;BME280;55800;54.272;18.558;2023-05-29T03:41:22;101330.09;;;11.37;60.14
68807;BME280;55800;54.272;18.558;2023-05-29T03:43:52;101336.03;;;11.47;59.82
68807;BME280;55800;54.272;18.558;2023-05-29T03:46:24;101330.25;;;11.59;59.22
68807;BME280;55800;54.272;18.558;2023-05-29T03:48:55;101324.41;;;11.74;59.55
68807;BME280;55800;54.272;18.558;2023-05-29T03:51:24;101336.66;;;11.81;60.23
68807;BME280;55800;54.272;18.558;2023-05-29T03:53:56;101346.16;;;11.90;59.99
68807;BME280;55800;54.272;18.558;2023-05-29T03:56:26;101343.09;;;12.00;58.87
68807;BME280;55800;54.272;18.558;2023-05-29T03:58:55;101337.28;;;12.12;58.94
68807;BME280;55800;54.272;18.558;2023-05-29T04:01:24;101339.41;;;12.27;58.79
68807;BME280;55800;54.272;18.558;2023-05-29T04:03:54;101346.16;;;12.37;59.19
68807;BME280;55800;54.272;18.558;2023-05-29T04:06:23;101341.31;;;12.47;59.61
68807;BME280;55800;54.272;18.558;2023-05-29T04:08:52;101345.50;;;12.54;60.68
68807;BME280;55800;54.272;18.558;2023-05-29T04:11:23;101346.06;;;12.64;58.86
68807;BME280;55800;54.272;18.558;2023-05-29T04:13:54;101344.69;;;12.75;59.88
68807;BME280;55800;54.272;18.558;2023-05-29T04:16:23;101344.44;;;12.81;59.92
68807;BME280;55800;54.272;18.558;2023-05-29T04:18:52;101347.94;;;12.83;60.14
68807;BME280;55800;54.272;18.558;2023-05-29T04:21:24;101351.25;;;12.90;60.07
68807;BME280;55800;54.272;18.558;2023-05-29T04:23:53;101350.16;;;12.95;59.38
68807;BME280;55800;54.272;18.558;2023-05-29T04:26:24;101332.97;;;12.99;59.84
68807;BME280;55800;54.272;18.558;2023-05-29T04:28:53;101351.22;;;13.13;58.70
68807;BME280;55800;54.272;18.558;2023-05-29T04:31:25;101358.03;;;13.21;58.86
68807;BME280;55800;54.272;18.558;2023-05-29T04:33:55;101354.06;;;13.32;58.34
68807;BME280;55800;54.272;18.558;2023-05-29T04:36:27;101355.59;;;13.37;58.83
68807;BME280;55800;54.272;18.558;2023-05-29T04:39:07;101351.53;;;13.49;58.29
68807;BME280;55800;54.272;18.558;2023-05-29T04:41:39;101349.31;;;13.58;57.78
68807;BME280;55800;54.272;18.558;2023-05-29T04:44:13;101347.19;;;13.66;57.79
68807;BME280;55800;54.272;18.558;2023-05-29T04:46:49;101338.81;;;13.74;57.45
68807;BME280;55800;54.272;18.558;2023-05-29T04:49:20;101343.84;;;13.81;57.35
68807;BME280;55800;54.272;18.558;2023-05-29T04:51:49;101355.19;;;13.88;57.24
68807;BME280;55800;54.272;18.558;2023-05-29T04:54:21;101354.84;;;13.95;57.17
68807;BME280;55800;54.272;18.558;2023-05-29T04:56:55;101341.09;;;14.03;56.84
68807;BME280;55800;54.272;18.558;2023-05-29T04:59:29;101346.78;;;14.16;56.34
68807;BME280;55800;54.272;18.558;2023-05-29T05:01:58;101334.59;;;14.27;56.28
68807;BME280;55800;54.272;18.558;2023-05-29T05:04:27;101340.47;;;14.37;56.17
68807;BME280;55800;54.272;18.558;2023-05-29T05:06:57;101345.25;;;14.49;55.65
68807;BME280;55800;54.272;18.558;2023-05-29T05:09:26;101345.66;;;14.60;55.68
68807;BME280;55800;54.272;18.558;2023-05-29T05:11:56;101354.88;;;14.73;55.26
68807;BME280;55800;54.272;18.558;2023-05-29T05:14:27;101350.81;;;14.83;54.86
68807;BME280;55800;54.272;18.558;2023-05-29T05:16:57;101343.19;;;14.93;54.77
68807;BME280;55800;54.272;18.558;2023-05-29T05:19:26;101342.88;;;14.99;54.37
68807;BME280;55800;54.272;18.558;2023-05-29T05:21:56;101346.94;;;15.07;54.09
68807;BME280;55800;54.272;18.558;2023-05-29T05:24:24;101347.03;;;15.23;54.05
68807;BME280;55800;54.272;18.558;2023-05-29T05:26:54;101347.31;;;15.35;53.69
68807;BME280;55800;54.272;18.558;2023-05-29T05:29:24;101340.66;;;15.42;53.19
68807;BME280;55800;54.272;18.558;2023-05-29T05:31:55;101352.72;;;15.54;53.25
68807;BME280;55800;54.272;18.558;2023-05-29T05:34:24;101343.97;;;15.66;52.83
68807;BME280;55800;54.272;18.558;2023-05-29T05:36:53;101348.25;;;15.70;52.19
68807;BME280;55800;54.272;18.558;2023-05-29T05:39:23;101344.44;;;15.74;51.84
68807;BME280;55800;54.272;18.558;2023-05-29T05:41:52;101362.41;;;15.75;51.90
68807;BME280;55800;54.272;18.558;2023-05-29T05:44:52;101367.78;;;15.75;51.80
68807;BME280;55800;54.272;18.558;2023-05-29T05:47:22;101358.50;;;15.81;51.50
68807;BME280;55800;54.272;18.558;2023-05-29T05:49:51;101366.50;;;15.82;51.67
68807;BME280;55800;54.272;18.558;2023-05-29T05:52:20;101364.69;;;15.83;51.35
68807;BME280;55800;54.272;18.558;2023-05-29T05:54:49;101374.44;;;15.85;50.87
68807;BME280;55800;54.272;18.558;2023-05-29T05:57:19;101359.84;;;15.89;50.66
68807;BME280;55800;54.272;18.558;2023-05-29T05:59:48;101362.44;;;15.91;50.83
68807;BME280;55800;54.272;18.558;2023-05-29T06:02:18;101368.16;;;15.85;50.58
68807;BME280;55800;54.272;18.558;2023-05-29T06:04:47;101368.72;;;15.91;50.23
68807;BME280;55800;54.272;18.558;2023-05-29T06:07:18;101372.44;;;15.89;50.44
68807;BME280;55800;54.272;18.558;2023-05-29T06:09:48;101374.34;;;15.87;50.45
68807;BME280;55800;54.272;18.558;2023-05-29T06:12:17;101378.63;;;15.91;50.40
68807;BME280;55800;54.272;18.558;2023-05-29T06:14:56;101378.63;;;15.91;50.03
68807;BME280;55800;54.272;18.558;2023-05-29T06:17:26;101378.56;;;15.92;49.55
68807;BME280;55800;54.272;18.558;2023-05-29T06:19:56;101389.38;;;15.92;49.42
68807;BME280;55800;54.272;18.558;2023-05-29T06:22:25;101379.41;;;15.93;48.76
68807;BME280;55800;54.272;18.558;2023-05-29T06:24:54;101393.31;;;15.85;48.87
68807;BME280;55800;54.272;18.558;2023-05-29T06:27:23;101384.91;;;15.91;48.85
68807;BME280;55800;54.272;18.558;2023-05-29T06:30:12;101385.38;;;15.99;49.00
68807;BME280;55800;54.272;18.558;2023-05-29T06:32:43;101387.50;;;16.10;48.80
68807;BME280;55800;54.272;18.558;2023-05-29T06:35:12;101389.91;;;16.16;48.94
68807;BME280;55800;54.272;18.558;2023-05-29T06:37:41;101398.81;;;16.18;48.49
68807;BME280;55800;54.272;18.558;2023-05-29T06:40:11;101391.97;;;16.28;48.51
68807;BME280;55800;54.272;18.558;2023-05-29T06:42:40;101387.66;;;16.41;48.65
68807;BME280;55800;54.272;18.558;2023-05-29T06:45:15;101388.75;;;16.54;48.56
68807;BME280;55800;54.272;18.558;2023-05-29T06:47:46;101383.81;;;16.62;48.40
68807;BME280;55800;54.272;18.558;2023-05-29T06:50:15;101390.31;;;16.75;48.62
68807;BME280;55800;54.272;18.558;2023-05-29T06:52:44;101385.09;;;16.88;47.72
68807;BME280;55800;54.272;18.558;2023-05-29T06:55:15;101388.28;;;16.94;47.89
68807;BME280;55800;54.272;18.558;2023-05-29T06:57:45;101397.72;;;17.03;47.65
68807;BME280;55800;54.272;18.558;2023-05-29T07:00:14;101396.94;;;17.01;47.15
68807;BME280;55800;54.272;18.558;2023-05-29T07:02:54;101394.75;;;17.07;46.91
68807;BME280;55800;54.272;18.558;2023-05-29T07:05:23;101398.09;;;17.12;46.98
68807;BME280;55800;54.272;18.558;2023-05-29T07:07:53;101396.94;;;17.16;47.00
68807;BME280;55800;54.272;18.558;2023-05-29T07:10:22;101399.13;;;17.26;47.02
68807;BME280;55800;54.272;18.558;2023-05-29T07:12:51;101403.41;;;17.30;46.31
68807;BME280;55800;54.272;18.558;2023-05-29T07:15:20;101400.78;;;17.28;46.30
68807;BME280;55800;54.272;18.558;2023-05-29T07:17:50;101398.69;;;17.33;46.59
68807;BME280;55800;54.272;18.558;2023-05-29T07:20:25;101405.75;;;17.36;45.87
68807;BME280;55800;54.272;18.558;2023-05-29T07:22:55;101407.78;;;17.32;45.83
68807;BME280;55800;54.272;18.558;2023-05-29T07:25:24;101399.66;;;17.32;45.68
68807;BME280;55800;54.272;18.558;2023-05-29T07:27:54;101409.22;;;17.38;45.66
68807;BME280;55800;54.272;18.558;2023-05-29T07:30:24;101410.00;;;17.40;45.28
68807;BME280;55800;54.272;18.558;2023-05-29T07:32:54;101410.00;;;17.40;45.13
68807;BME280;55800;54.272;18.558;2023-05-29T07:35:23;101412.38;;;17.46;45.62
68807;BME280;55800;54.272;18.558;2023-05-29T07:37:54;101415.72;;;17.51;45.22
68807;BME280;55800;54.272;18.558;2023-05-29T07:40:24;101417.44;;;17.52;45.27
68807;BME280;55800;54.272;18.558;2023-05-29T07:43:11;101399.81;;;17.60;45.35
68807;BME280;55800;54.272;18.558;2023-05-29T07:45:47;101407.41;;;17.69;45.25
68807;BME280;55800;54.272;18.558;2023-05-29T07:48:17;101413.69;;;17.70;44.49
68807;BME280;55800;54.272;18.558;2023-05-29T07:50:49;101409.94;;;17.72;44.76
68807;BME280;55800;54.272;18.558;2023-05-29T07:53:21;101410.31;;;17.66;44.20
68807;BME280;55800;54.272;18.558;2023-05-29T07:55:50;101409.22;;;17.69;44.14
68807;BME280;55800;54.272;18.558;2023-05-29T07:58:20;101406.34;;;17.72;44.01
68807;BME280;55800;54.272;18.558;2023-05-29T08:00:50;101412.38;;;17.77;44.26
68807;BME280;55800;54.272;18.558;2023-05-29T08:03:19;101412.97;;;17.82;43.95
68807;BME280;55800;54.272;18.558;2023-05-29T08:06:11;101413.84;;;17.82;44.14
68807;BME280;55800;54.272;18.558;2023-05-29T08:08:42;101423.25;;;17.91;44.03
68807;BME280;55800;54.272;18.558;2023-05-29T08:11:11;101422.81;;;17.83;43.67
68807;BME280;55800;54.272;18.558;2023-05-29T08:13:41;101413.56;;;17.87;44.09
68807;BME280;55800;54.272;18.558;2023-05-29T08:16:10;101418.97;;;17.87;43.62
68807;BME280;55800;54.272;18.558;2023-05-29T08:18:42;101417.72;;;17.92;44.18
68807;BME280;55800;54.272;18.558;2023-05-29T08:21:11;101414.66;;;17.99;43.89
68807;BME280;55800;54.272;18.558;2023-05-29T08:23:42;101413.50;;;18.03;42.93
68807;BME280;55800;54.272;18.558;2023-05-29T08:26:10;101414.59;;;18.00;42.69
68807;BME280;55800;54.272;18.558;2023-05-29T08:28:40;101414.38;;;18.03;42.57
68807;BME280;55800;54.272;18.558;2023-05-29T08:31:09;101420.50;;;18.07;43.06
68807;BME280;55800;54.272;18.558;2023-05-29T08:33:39;101422.13;;;18.09;43.28
68807;BME280;55800;54.272;18.558;2023-05-29T08:36:08;101417.16;;;18.17;42.97
68807;BME280;55800;54.272;18.558;2023-05-29T08:38:38;101417.66;;;18.24;42.41
68807;BME280;55800;54.272;18.558;2023-05-29T08:41:08;101417.16;;;18.31;42.40
68807;BME280;55800;54.272;18.558;2023-05-29T08:43:40;101420.53;;;18.35;41.35
68807;BME280;55800;54.272;18.558;2023-05-29T08:46:09;101419.69;;;18.34;41.80
68807;BME280;55800;54.272;18.558;2023-05-29T08:48:40;101422.59;;;18.31;41.12
68807;BME280;55800;54.272;18.558;2023-05-29T08:51:11;101415.50;;;18.29;42.01
68807;BME280;55800;54.272;18.558;2023-05-29T08:53:40;101435.06;;;18.34;42.02
68807;BME280;55800;54.272;18.558;2023-05-29T08:56:10;101422.69;;;18.30;42.10
68807;BME280;55800;54.272;18.558;2023-05-29T08:58:53;101423.19;;;18.36;42.00
68807;BME280;55800;54.272;18.558;2023-05-29T09:01:23;101429.06;;;18.43;42.16
68807;BME280;55800;54.272;18.558;2023-05-29T09:03:52;101422.25;;;18.51;41.72
68807;BME280;55800;54.272;18.558;2023-05-29T09:06:22;101421.13;;;18.55;41.67
68807;BME280;55800;54.272;18.558;2023-05-29T09:08:56;101427.47;;;18.54;40.87
68807;BME280;55800;54.272;18.558;2023-05-29T09:11:53;101421.69;;;18.60;41.00
68807;BME280;55800;54.272;18.558;2023-05-29T09:14:32;101413.56;;;18.60;39.77
68807;BME280;55800;54.272;18.558;2023-05-29T09:17:04;101418.78;;;18.63;40.60
68807;BME280;55800;54.272;18.558;2023-05-29T09:19:34;101426.72;;;18.66;40.80
68807;BME280;55800;54.272;18.558;2023-05-29T09:22:06;101417.75;;;18.66;40.54
68807;BME280;55800;54.272;18.558;2023-05-29T09:24:35;101432.34;;;18.63;39.47
68807;BME280;55800;54.272;18.558;2023-05-29T09:27:07;101409.91;;;18.61;39.50
68807;BME280;55800;54.272;18.558;2023-05-29T09:29:37;101419.69;;;18.64;39.83
68807;BME280;55800;54.272;18.558;2023-05-29T09:32:06;101420.91;;;18.73;40.08
68807;BME280;55800;54.272;18.558;2023-05-29T09:34:37;101425.38;;;18.74;38.86
68807;BME280;55800;54.272;18.558;2023-05-29T09:37:07;101424.97;;;18.80;39.57
68807;BME280;55800;54.272;18.558;2023-05-29T09:42:25;101438.91;;;18.88;39.04
68807;BME280;55800;54.272;18.558;2023-05-29T09:44:55;101437.75;;;18.92;39.28
68807;BME280;55800;54.272;18.558;2023-05-29T09:47:24;101434.34;;;19.02;39.12
68807;BME280;55800;54.272;18.558;2023-05-29T09:49:54;101440.47;;;19.06;38.74
68807;BME280;55800;54.272;18.558;2023-05-29T09:52:23;101439.69;;;19.04;37.53
68807;BME280;55800;54.272;18.558;2023-05-29T09:54:53;101434.84;;;19.09;36.88
68807;BME280;55800;54.272;18.558;2023-05-29T09:57:25;101435.72;;;19.09;36.21
68807;BME280;55800;54.272;18.558;2023-05-29T09:59:56;101435.72;;;19.09;36.26
68807;BME280;55800;54.272;18.558;2023-05-29T10:02:25;101437.94;;;19.17;37.68
68807;BME280;55800;54.272;18.558;2023-05-29T10:04:55;101446.84;;;19.19;36.89
68807;BME280;55800;54.272;18.558;2023-05-29T10:07:25;101438.41;;;19.23;36.85
68807;BME280;55800;54.272;18.558;2023-05-29T10:09:59;101435.19;;;19.31;37.48
68807;BME280;55800;54.272;18.558;2023-05-29T10:12:31;101446.75;;;19.34;37.10
68807;BME280;55800;54.272;18.558;2023-05-29T10:15:01;101444.78;;;19.36;35.79
68807;BME280;55800;54.272;18.558;2023-05-29T10:17:32;101439.00;;;19.42;36.30
68807;BME280;55800;54.272;18.558;2023-05-29T10:20:02;101439.84;;;19.43;36.75
68807;BME280;55800;54.272;18.558;2023-05-29T10:22:34;101434.22;;;19.46;36.23
68807;BME280;55800;54.272;18.558;2023-05-29T10:25:05;101429.34;;;19.51;36.47
68807;BME280;55800;54.272;18.558;2023-05-29T10:27:36;101437.50;;;19.51;35.50
68807;BME280;55800;54.272;18.558;2023-05-29T10:30:09;101437.13;;;19.57;35.74
68807;BME280;55800;54.272;18.558;2023-05-29T10:32:41;101434.00;;;19.63;35.61
68807;BME280;55800;54.272;18.558;2023-05-29T10:35:16;101440.19;;;19.65;35.46
68807;BME280;55800;54.272;18.558;2023-05-29T10:37:47;101436.72;;;19.63;34.93
68807;BME280;55800;54.272;18.558;2023-05-29T10:40:22;101426.41;;;19.68;36.24
68807;BME280;55800;54.272;18.558;2023-05-29T10:42:53;101430.25;;;19.78;36.87
68807;BME280;55800;54.272;18.558;2023-05-29T10:51:26;101422.31;;;20.02;36.08
68807;BME280;55800;54.272;18.558;2023-05-29T10:53:55;101416.91;;;20.14;36.38
68807;BME280;55800;54.272;18.558;2023-05-29T10:56:27;101418.03;;;20.25;35.52
68807;BME280;55800;54.272;18.558;2023-05-29T10:58:59;101418.56;;;20.30;35.70
68807;BME280;55800;54.272;18.558;2023-05-29T11:01:30;101422.41;;;20.40;34.66
68807;BME280;55800;54.272;18.558;2023-05-29T11:06:48;101413.94;;;20.57;36.39
68807;BME280;55800;54.272;18.558;2023-05-29T11:09:28;101416.75;;;20.68;37.43
68807;BME280;55800;54.272;18.558;2023-05-29T11:15:08;101409.56;;;21.05;38.80
68807;BME280;55800;54.272;18.558;2023-05-29T11:17:44;101402.78;;;21.23;38.57
68807;BME280;55800;54.272;18.558;2023-05-29T11:20:16;101413.22;;;21.29;39.16
68807;BME280;55800;54.272;18.558;2023-05-29T11:22:53;101402.03;;;21.44;39.25
68807;BME280;55800;54.272;18.558;2023-05-29T11:25:25;101410.53;;;21.52;39.47
68807;BME280;55800;54.272;18.558;2023-05-29T11:27:54;101404.50;;;21.60;38.88
68807;BME280;55800;54.272;18.558;2023-05-29T11:30:25;101403.81;;;21.69;38.96
68807;BME280;55800;54.272;18.558;2023-05-29T11:32:54;101407.16;;;21.72;38.63
68807;BME280;55800;54.272;18.558;2023-05-29T11:35:28;101412.13;;;21.78;38.79
68807;BME280;55800;54.272;18.558;2023-05-29T11:37:58;101399.53;;;21.77;38.52
68807;BME280;55800;54.272;18.558;2023-05-29T11:40:34;101406.47;;;21.82;38.89
68807;BME280;55800;54.272;18.558;2023-05-29T11:43:06;101408.88;;;21.86;39.27
68807;BME280;55800;54.272;18.558;2023-05-29T11:45:37;101415.56;;;21.93;38.88
68807;BME280;55800;54.272;18.558;2023-05-29T11:48:08;101411.75;;;21.96;38.63
68807;BME280;55800;54.272;18.558;2023-05-29T11:50:38;101411.13;;;21.92;38.12
68807;BME280;55800;54.272;18.558;2023-05-29T11:53:11;101416.22;;;21.97;38.85
68807;BME280;55800;54.272;18.558;2023-05-29T11:55:40;101416.50;;;22.05;38.61
68807;BME280;55800;54.272;18.558;2023-05-29T11:58:09;101406.09;;;22.10;38.62
68807;BME280;55800;54.272;18.558;2023-05-29T12:00:44;101405.00;;;22.12;37.33
68807;BME280;55800;54.272;18.558;2023-05-29T12:03:17;101401.94;;;22.17;38.07
68807;BME280;55800;54.272;18.558;2023-05-29T12:05:46;101408.38;;;22.16;37.91
68807;BME280;55800;54.272;18.558;2023-05-29T12:08:17;101406.50;;;22.16;37.79
68807;BME280;55800;54.272;18.558;2023-05-29T12:10:50;101405.19;;;22.22;38.02
68807;BME280;55800;54.272;18.558;2023-05-29T12:13:20;101395.25;;;22.21;37.65
68807;BME280;55800;54.272;18.558;2023-05-29T12:15:51;101407.91;;;22.22;37.35
68807;BME280;55800;54.272;18.558;2023-05-29T12:18:21;101396.38;;;22.29;38.16
68807;BME280;55800;54.272;18.558;2023-05-29T12:20:50;101402.00;;;22.39;37.62
68807;BME280;55800;54.272;18.558;2023-05-29T12:23:20;101398.28;;;22.40;37.72
68807;BME280;55800;54.272;18.558;2023-05-29T12:25:51;101401.50;;;22.45;37.95
68807;BME280;55800;54.272;18.558;2023-05-29T12:28:21;101404.50;;;22.53;37.21
68807;BME280;55800;54.272;18.558;2023-05-29T12:30:57;101389.44;;;22.60;36.55
68807;BME280;55800;54.272;18.558;2023-05-29T12:33:28;101394.25;;;22.68;37.23
68807;BME280;55800;54.272;18.558;2023-05-29T12:36:02;101390.19;;;22.73;37.06
68807;BME280;55800;54.272;18.558;2023-05-29T12:38:31;101394.63;;;22.74;36.58
68807;BME280;55800;54.272;18.558;2023-05-29T12:41:00;101394.66;;;22.85;36.94
68807;BME280;55800;54.272;18.558;2023-05-29T12:43:30;101393.91;;;22.94;37.42
68807;BME280;55800;54.272;18.558;2023-05-29T12:46:00;101396.13;;;23.00;36.16
68807;BME280;55800;54.272;18.558;2023-05-29T12:48:30;101392.69;;;23.09;35.59
68807;BME280;55800;54.272;18.558;2023-05-29T12:50:59;101384.34;;;23.11;36.06
68807;BME280;55800;54.272;18.558;2023-05-29T12:53:35;101387.56;;;23.16;36.08
68807;BME280;55800;54.272;18.558;2023-05-29T12:56:06;101382.38;;;23.13;35.40
68807;BME280;55800;54.272;18.558;2023-05-29T12:58:35;101385.56;;;23.18;35.61
68807;BME280;55800;54.272;18.558;2023-05-29T13:01:11;101383.59;;;23.20;35.41
68807;BME280;55800;54.272;18.558;2023-05-29T13:03:41;101393.75;;;23.29;35.65
68807;BME280;55800;54.272;18.558;2023-05-29T13:06:10;101388.56;;;23.26;34.38
68807;BME280;55800;54.272;18.558;2023-05-29T13:08:39;101388.03;;;23.32;35.36
68807;BME280;55800;54.272;18.558;2023-05-29T13:11:08;101397.13;;;23.33;34.83
68807;BME280;55800;54.272;18.558;2023-05-29T13:13:37;101389.31;;;23.39;35.56